createdAt,value
2019-01-29T00:02:10.992Z,99643.87
2019-01-29T00:05:02.101Z,99642.85
2019-01-29T00:07:52.846Z,99639.17
2019-01-29T00:10:43.442Z,99645.92
2019-01-29T00:13:33.788Z,99649.59
2019-01-29T00:16:23.990Z,99652.61
2019-01-29T00:19:14.521Z,99664.50
2019-01-29T00:22:04.706Z,99658.87
2019-01-29T00:24:54.987Z,99666.31
2019-01-29T00:27:45.053Z,99663.17
2019-01-29T00:30:35.614Z,99660.20
2019-01-29T00:33:25.985Z,99660.92
2019-01-29T00:36:16.484Z,99666.70
2019-01-29T00:39:09.184Z,99679.38
2019-01-29T00:41:59.904Z,99672.20
2019-01-29T00:44:50.167Z,99682.47
2019-01-29T00:47:40.942Z,99675.73
2019-01-29T00:50:31.534Z,99669.18
2019-01-29T00:53:21.937Z,99670.14
2019-01-29T00:56:12.341Z,99674.92
2019-01-29T00:59:02.977Z,99670.38
2019-01-29T01:01:53.267Z,99675.41
2019-01-29T01:04:43.474Z,99675.16
2019-01-29T01:07:33.981Z,99659.95
2019-01-29T01:10:24.542Z,99659.31
2019-01-29T01:13:14.974Z,99657.28
2019-01-29T01:16:06.487Z,99647.76
2019-01-29T01:18:56.681Z,99643.65
2019-01-29T01:21:46.988Z,99626.72
2019-01-29T01:24:37.153Z,99647.59
2019-01-29T01:27:30.285Z,99644.74
2019-01-29T01:30:20.684Z,99639.02
2019-01-29T01:33:11.132Z,99633.20
2019-01-29T01:36:01.498Z,99635.09
2019-01-29T01:38:51.895Z,99633.05
2019-01-29T01:41:42.358Z,99632.23
2019-01-29T01:44:32.823Z,99626.89
2019-01-29T01:47:23.001Z,99630.19
2019-01-29T01:50:13.926Z,99618.47
2019-01-29T01:53:04.081Z,99617.57
2019-01-29T01:55:54.524Z,99616.44
2019-01-29T01:58:45.193Z,99618.86
2019-01-29T02:01:35.702Z,99609.06
2019-01-29T02:04:25.987Z,99607.92
2019-01-29T02:07:16.593Z,99607.63
2019-01-29T02:10:09.976Z,99604.62
2019-01-29T02:13:01.580Z,99593.02
2019-01-29T02:15:51.914Z,99590.72
2019-01-29T02:18:42.364Z,99588.23
2019-01-29T02:21:32.655Z,99584.65
2019-01-29T02:24:22.959Z,99586.89
2019-01-29T02:27:13.536Z,99586.55
2019-01-29T02:30:03.983Z,99581.06
2019-01-29T02:32:54.308Z,99575.38
2019-01-29T02:35:44.940Z,99575.05
2019-01-29T02:38:35.257Z,99587.23
2019-01-29T02:41:25.805Z,99580.06
2019-01-29T02:44:16.141Z,99580.88
2019-01-29T02:47:06.320Z,99580.36
2019-01-29T02:49:56.671Z,99586.52
2019-01-29T02:52:47.083Z,99587.72
2019-01-29T02:55:37.492Z,99582.31
2019-01-29T02:58:30.443Z,99579.64
2019-01-29T03:01:20.802Z,99575.72
2019-01-29T03:04:11.328Z,99581.89
2019-01-29T03:07:01.835Z,99584.74
2019-01-29T03:09:52.367Z,99583.03
2019-01-29T03:12:42.687Z,99575.09
2019-01-29T03:15:33.739Z,99575.23
2019-01-29T03:18:24.259Z,99570.24
2019-01-29T03:21:14.688Z,99567.63
2019-01-29T03:24:05.118Z,99568.62
2019-01-29T03:26:55.624Z,99570.16
2019-01-29T03:29:46.119Z,99562.98
2019-01-29T03:32:36.759Z,99558.96
2019-01-29T03:35:27.238Z,99568.39
2019-01-29T03:38:17.941Z,99570.88
2019-01-29T03:41:08.096Z,99562.83
2019-01-29T03:43:58.652Z,99565.22
2019-01-29T03:46:49.189Z,99578.41
2019-01-29T03:49:39.712Z,99577.55
2019-01-29T03:52:30.182Z,99578.03
2019-01-29T03:55:20.691Z,99578.33
2019-01-29T03:58:11.007Z,99573.77
2019-01-29T04:01:01.302Z,99578.70
2019-01-29T04:03:51.595Z,99573.05
2019-01-29T04:06:42.220Z,99567.47
2019-01-29T04:09:32.510Z,99563.06
2019-01-29T04:12:23.043Z,99552.61
2019-01-29T04:15:16.645Z,99554.52
2019-01-29T04:18:07.205Z,99557.83
2019-01-29T04:21:01.234Z,99556.43
2019-01-29T04:23:51.747Z,99562.34
2019-01-29T04:26:42.283Z,99560.30
2019-01-29T04:29:32.924Z,99565.17
2019-01-29T04:32:23.239Z,99568.61
2019-01-29T04:35:13.590Z,99571.80
2019-01-29T04:38:04.002Z,99579.38
2019-01-29T04:40:54.563Z,99591.42
2019-01-29T04:43:44.996Z,99587.49
2019-01-29T04:46:35.210Z,99601.25
2019-01-29T04:49:25.602Z,99608.99
2019-01-29T04:52:16.227Z,99603.22
2019-01-29T04:55:06.933Z,99612.02
2019-01-29T04:57:57.535Z,99615.89
2019-01-29T05:00:48.200Z,99611.02
2019-01-29T05:03:38.493Z,99618.42
2019-01-29T05:06:28.569Z,99615.32
2019-01-29T05:09:18.996Z,99624.23
2019-01-29T05:12:09.325Z,99627.95
2019-01-29T05:14:59.943Z,99630.14
2019-01-29T05:17:50.352Z,99631.58
2019-01-29T05:20:40.861Z,99633.45
2019-01-29T05:23:31.321Z,99632.16
2019-01-29T05:26:21.858Z,99630.34
2019-01-29T05:29:12.251Z,99638.55
2019-01-29T05:32:02.989Z,99633.05
2019-01-29T05:34:55.627Z,99636.72
2019-01-29T05:37:46.825Z,99630.71
2019-01-29T05:40:37.212Z,99635.00
2019-01-29T05:43:27.629Z,99630.66
2019-01-29T05:46:17.722Z,99633.23
2019-01-29T05:49:08.068Z,99627.16
2019-01-29T05:51:58.551Z,99631.80
2019-01-29T05:54:48.888Z,99628.00
2019-01-29T05:57:39.376Z,99626.19
2019-01-29T06:00:33.902Z,99622.55
2019-01-29T06:03:24.158Z,99631.16
2019-01-29T06:06:15.019Z,99623.61
2019-01-29T06:09:08.785Z,99624.05
2019-01-29T06:12:01.111Z,99629.27
2019-01-29T06:14:53.695Z,99621.23
2019-01-29T06:17:44.489Z,99629.84
2019-01-29T06:20:34.978Z,99633.81
2019-01-29T06:23:27.447Z,99638.92
2019-01-29T06:26:20.488Z,99649.19
2019-01-29T06:29:11.291Z,99649.09
2019-01-29T06:32:01.812Z,99649.81
2019-01-29T06:34:52.531Z,99651.93
2019-01-29T06:37:42.992Z,99661.73
2019-01-29T06:40:33.563Z,99655.94
2019-01-29T06:43:23.944Z,99656.31
2019-01-29T06:46:14.435Z,99659.43
2019-01-29T06:49:04.883Z,99660.58
2019-01-29T06:51:55.444Z,99662.15
2019-01-29T06:54:45.867Z,99663.64
2019-01-29T06:57:36.401Z,99658.29
2019-01-29T07:00:28.688Z,99662.88
2019-01-29T07:03:19.219Z,99662.69
2019-01-29T07:06:09.658Z,99661.30
2019-01-29T07:09:00.060Z,99661.35
2019-01-29T07:12:01.108Z,99665.08
2019-01-29T07:14:52.129Z,99666.98
2019-01-29T07:17:46.570Z,99665.94
2019-01-29T07:20:37.213Z,99662.12
2019-01-29T07:23:27.815Z,99673.54
2019-01-29T07:26:18.315Z,99677.70
2019-01-29T07:29:08.574Z,99686.30
2019-01-29T07:31:59.223Z,99686.02
2019-01-29T07:34:49.680Z,99683.34
2019-01-29T07:37:40.147Z,99690.60
2019-01-29T07:40:30.564Z,99695.61
2019-01-29T07:43:21.081Z,99697.44
2019-01-29T07:46:11.537Z,99703.36
2019-01-29T07:49:02.236Z,99717.51
2019-01-29T07:51:52.915Z,99717.37
2019-01-29T07:54:51.119Z,99713.64
2019-01-29T07:57:35.806Z,99719.23
2019-01-29T08:00:26.848Z,99717.84
2019-01-29T08:03:17.642Z,99727.64
2019-01-29T08:06:08.223Z,99725.38
2019-01-29T08:08:58.636Z,99724.15
2019-01-29T08:11:48.814Z,99734.75
2019-01-29T08:14:39.205Z,99737.19
2019-01-29T08:17:29.491Z,99745.49
2019-01-29T08:20:19.743Z,99744.36
2019-01-29T08:23:10.041Z,99751.13
2019-01-29T08:26:00.431Z,99758.25
2019-01-29T08:28:51.075Z,99731.38
2019-01-29T08:31:41.647Z,99769.27
2019-01-29T08:34:32.381Z,99770.32
2019-01-29T08:37:22.708Z,99776.41
2019-01-29T08:40:13.211Z,99773.31
2019-01-29T08:43:03.696Z,99785.52
2019-01-29T08:45:54.426Z,99774.23
2019-01-29T08:48:44.730Z,99774.61
2019-01-29T08:51:36.362Z,99778.95
2019-01-29T08:54:26.885Z,99771.94
2019-01-29T08:57:17.424Z,99778.94
2019-01-29T09:00:08.260Z,99780.61
2019-01-29T09:02:59.290Z,99780.55
2019-01-29T09:05:49.901Z,99782.64
2019-01-29T09:08:40.693Z,99788.79
2019-01-29T09:11:31.089Z,99794.90
2019-01-29T09:14:21.543Z,99786.91
2019-01-29T09:17:11.910Z,99792.84
2019-01-29T09:20:03.238Z,99788.52
2019-01-29T09:22:53.589Z,99782.54
2019-01-29T09:25:44.063Z,99783.27
2019-01-29T09:28:34.652Z,99781.55
2019-01-29T09:31:25.501Z,99784.98
2019-01-29T09:34:15.930Z,99778.56
2019-01-29T09:37:06.630Z,99772.41
2019-01-29T09:39:56.998Z,99764.77
2019-01-29T09:42:47.456Z,99769.09
2019-01-29T09:45:38.592Z,99767.68
2019-01-29T09:48:29.076Z,99761.19
2019-01-29T09:51:19.405Z,99766.58
2019-01-29T09:54:09.602Z,99763.40
2019-01-29T09:56:59.992Z,99761.12
2019-01-29T09:59:50.658Z,99756.09
2019-01-29T10:02:41.080Z,99760.08
2019-01-29T10:05:31.848Z,99750.65
2019-01-29T10:08:22.325Z,99748.83
2019-01-29T10:11:12.688Z,99746.02
2019-01-29T10:14:03.022Z,99743.92
2019-01-29T10:16:53.680Z,99749.27
2019-01-29T10:19:44.073Z,99741.37
2019-01-29T10:22:34.576Z,99733.52
2019-01-29T10:25:24.805Z,99742.00
2019-01-29T10:28:15.414Z,99739.30
2019-01-29T10:31:05.961Z,99732.56
2019-01-29T10:33:56.206Z,99725.50
2019-01-29T10:36:46.384Z,99727.84
2019-01-29T10:39:36.937Z,99724.14
2019-01-29T10:42:27.679Z,99724.98
2019-01-29T10:45:19.364Z,99724.54
2019-01-29T10:48:09.689Z,99731.85
2019-01-29T10:51:00.022Z,99730.00
2019-01-29T10:53:55.295Z,99725.16
2019-01-29T10:56:46.237Z,99721.16
2019-01-29T10:59:38.722Z,99728.59
2019-01-29T11:02:29.364Z,99725.95
2019-01-29T11:05:23.148Z,99722.84
2019-01-29T11:08:14.123Z,99722.16
2019-01-29T11:11:04.849Z,99734.69
2019-01-29T11:13:55.513Z,99722.84
2019-01-29T11:16:45.843Z,99718.20
2019-01-29T11:19:36.377Z,99711.34
2019-01-29T11:22:26.861Z,99708.98
2019-01-29T11:25:19.625Z,99708.30
2019-01-29T11:28:09.797Z,99709.56
2019-01-29T11:31:00.475Z,99707.61
2019-01-29T11:33:50.949Z,99704.52
2019-01-29T11:36:41.872Z,99711.91
2019-01-29T11:39:32.111Z,99708.23
2019-01-29T11:42:23.076Z,99713.10
2019-01-29T11:45:17.151Z,99710.34
2019-01-29T11:48:07.772Z,99713.36
2019-01-29T11:50:58.144Z,99712.45
2019-01-29T11:53:48.930Z,99701.70
2019-01-29T11:56:39.532Z,99705.59
2019-01-29T11:59:30.380Z,99698.52
2019-01-29T12:02:28.236Z,99695.09
2019-01-29T12:05:12.771Z,99698.13
2019-01-29T12:08:02.799Z,99677.38
2019-01-29T12:10:55.306Z,99678.53
2019-01-29T12:13:45.494Z,99680.02
2019-01-29T12:16:35.951Z,99675.34
2019-01-29T12:19:26.152Z,99670.86
2019-01-29T12:22:16.391Z,99661.67
2019-01-29T12:25:06.875Z,99669.90
2019-01-29T12:27:57.692Z,99666.27
2019-01-29T12:30:48.056Z,99665.37
2019-01-29T12:33:38.800Z,99660.05
2019-01-29T12:36:29.203Z,99659.50
2019-01-29T12:39:20.458Z,99654.28
2019-01-29T12:42:10.535Z,99657.46
2019-01-29T12:45:00.983Z,99651.83
2019-01-29T12:47:51.431Z,99657.14
2019-01-29T12:50:46.449Z,99662.86
2019-01-29T12:53:41.814Z,99648.23
2019-01-29T12:56:32.513Z,99644.67
2019-01-29T12:59:23.072Z,99654.27
2019-01-29T13:02:13.634Z,99656.97
2019-01-29T13:05:03.698Z,99654.66
2019-01-29T13:07:54.347Z,99642.97
2019-01-29T13:10:44.773Z,99644.55
2019-01-29T13:13:35.333Z,99640.98
2019-01-29T13:16:25.730Z,99652.60
2019-01-29T13:19:16.152Z,99654.80
2019-01-29T13:22:06.577Z,99653.85
2019-01-29T13:24:57.218Z,99647.23
2019-01-29T13:27:50.696Z,99634.91
2019-01-29T13:30:41.228Z,99630.80
2019-01-29T13:33:31.555Z,99634.03
2019-01-29T13:36:22.532Z,99635.46
2019-01-29T13:39:13.172Z,99645.91
2019-01-29T13:42:03.404Z,99642.89
2019-01-29T13:44:53.777Z,99634.87
2019-01-29T13:47:43.833Z,99621.09
2019-01-29T13:50:39.174Z,99625.26
2019-01-29T13:53:29.709Z,99629.86
2019-01-29T13:56:22.004Z,99630.86
2019-01-29T13:59:12.201Z,99625.98
2019-01-29T14:02:02.368Z,99621.26
2019-01-29T14:04:52.913Z,99615.72
2019-01-29T14:07:43.504Z,99617.94
2019-01-29T14:10:33.812Z,99619.84
2019-01-29T14:13:24.212Z,99630.08
2019-01-29T14:16:15.553Z,99642.63
2019-01-29T14:19:06.154Z,99643.08
2019-01-29T14:21:56.688Z,99636.98
2019-01-29T14:24:47.244Z,99641.00
2019-01-29T14:27:37.575Z,99645.39
2019-01-29T14:30:29.859Z,99647.20
2019-01-29T14:33:20.287Z,99643.05
2019-01-29T14:36:16.552Z,99637.41
2019-01-29T14:39:25.149Z,99640.21
2019-01-29T14:42:15.909Z,99634.84
2019-01-29T14:45:11.229Z,99615.16
2019-01-29T14:48:01.580Z,99635.19
2019-01-29T14:50:52.281Z,99620.33
2019-01-29T14:53:43.013Z,99611.17
2019-01-29T14:56:33.606Z,99611.50
2019-01-29T14:59:24.002Z,99608.34
2019-01-29T15:02:14.472Z,99606.78
2019-01-29T15:05:07.840Z,99599.89
2019-01-29T15:07:58.766Z,99598.70
2019-01-29T15:10:49.365Z,99596.65
2019-01-29T15:13:39.656Z,99586.20
2019-01-29T15:16:55.192Z,99587.88
2019-01-29T15:19:45.452Z,99586.23
2019-01-29T15:22:35.641Z,99585.71
2019-01-29T15:25:26.159Z,99583.48
2019-01-29T15:28:16.577Z,99584.03
2019-01-29T15:31:07.134Z,99582.51
2019-01-29T15:33:57.589Z,99581.98
2019-01-29T15:36:47.799Z,99574.05
2019-01-29T15:39:38.489Z,99584.05
2019-01-29T15:42:28.737Z,99578.37
2019-01-29T15:45:19.833Z,99587.55
2019-01-29T15:48:10.760Z,99585.51
2019-01-29T15:51:01.492Z,99582.14
2019-01-29T15:53:52.481Z,99576.22
2019-01-29T15:56:42.963Z,99572.47
2019-01-29T15:59:33.438Z,99569.65
2019-01-29T16:02:23.760Z,99563.95
2019-01-29T16:05:16.138Z,99561.14
2019-01-29T16:08:07.199Z,99560.14
2019-01-29T16:10:57.671Z,99556.12
2019-01-29T16:13:47.861Z,99548.49
2019-01-29T16:16:39.617Z,99546.86
2019-01-29T16:19:30.904Z,99542.91
2019-01-29T16:22:21.438Z,99546.05
2019-01-29T16:25:12.740Z,99541.80
2019-01-29T16:28:03.267Z,99540.61
2019-01-29T16:30:53.711Z,99544.00
2019-01-29T16:33:44.375Z,99544.91
2019-01-29T16:36:34.951Z,99537.75
2019-01-29T16:39:25.198Z,99545.64
2019-01-29T16:42:15.841Z,99530.39
2019-01-29T16:45:07.445Z,99523.84
2019-01-29T16:47:57.640Z,99511.16
2019-01-29T16:50:48.083Z,99519.89
2019-01-29T16:53:38.192Z,99514.20
2019-01-29T16:56:28.550Z,99511.87
2019-01-29T16:59:18.738Z,99509.08
2019-01-29T17:02:09.418Z,99516.11
2019-01-29T17:04:59.947Z,99512.89
2019-01-29T17:07:50.392Z,99504.38
2019-01-29T17:10:40.900Z,99508.61
2019-01-29T17:13:31.592Z,99510.30
2019-01-29T17:16:22.128Z,99512.11
2019-01-29T17:19:12.704Z,99494.36
2019-01-29T17:22:02.829Z,99491.63
2019-01-29T17:24:53.186Z,99500.79
2019-01-29T17:27:43.659Z,99482.87
2019-01-29T17:30:35.835Z,99491.05
2019-01-29T17:33:26.308Z,99484.20
2019-01-29T17:36:16.797Z,99487.24
2019-01-29T17:39:09.229Z,99481.50
2019-01-29T17:41:59.686Z,99494.12
2019-01-29T17:44:50.101Z,99483.11
2019-01-29T17:47:40.796Z,99484.38
2019-01-29T17:50:33.382Z,99485.38
2019-01-29T17:53:23.917Z,99486.48
2019-01-29T17:56:14.555Z,99486.56
2019-01-29T17:59:05.041Z,99489.64
2019-01-29T18:01:55.503Z,99489.86
2019-01-29T18:04:46.007Z,99478.88
2019-01-29T18:07:36.500Z,99480.66
2019-01-29T18:10:26.943Z,99479.56
2019-01-29T18:13:17.455Z,99477.80
2019-01-29T18:16:07.809Z,99463.25
2019-01-29T18:18:58.311Z,99483.99
2019-01-29T18:21:56.721Z,99482.66
2019-01-29T18:24:40.393Z,99489.08
2019-01-29T18:27:31.988Z,99461.27
2019-01-29T18:30:24.725Z,99465.93
2019-01-29T18:33:15.195Z,99457.64
2019-01-29T18:36:05.611Z,99458.34
2019-01-29T18:38:55.869Z,99457.95
2019-01-29T18:41:46.296Z,99453.52
2019-01-29T18:44:36.641Z,99468.45
2019-01-29T18:47:27.167Z,99456.60
2019-01-29T18:50:18.039Z,99466.47
2019-01-29T18:53:08.202Z,99461.48
2019-01-29T18:55:58.926Z,99462.20
2019-01-29T18:58:49.437Z,99459.13
2019-01-29T19:01:39.976Z,99448.48
2019-01-29T19:04:30.388Z,99463.59
2019-01-29T19:07:21.008Z,99450.91
2019-01-29T19:10:13.187Z,99440.75
2019-01-29T19:13:03.888Z,99459.13
2019-01-29T19:15:54.016Z,99450.38
2019-01-29T19:18:44.392Z,99463.05
2019-01-29T19:21:34.752Z,99446.45
2019-01-29T19:24:25.256Z,99448.80
2019-01-29T19:27:15.776Z,99441.59
2019-01-29T19:30:08.095Z,99440.66
2019-01-29T19:32:58.597Z,99435.64
2019-01-29T19:35:48.934Z,99436.98
2019-01-29T19:38:39.410Z,99435.00
2019-01-29T19:41:29.626Z,99440.30
2019-01-29T19:44:20.286Z,99438.38
2019-01-29T19:47:11.835Z,99439.02
2019-01-29T19:50:02.661Z,99434.69
2019-01-29T19:52:53.320Z,99439.07
2019-01-29T19:55:43.726Z,99441.91
2019-01-29T19:58:36.732Z,99431.46
2019-01-29T20:01:27.045Z,99432.62
2019-01-29T20:04:17.837Z,99441.25
2019-01-29T20:07:08.337Z,99425.80
2019-01-29T20:09:58.524Z,99426.17
2019-01-29T20:12:48.992Z,99428.00
2019-01-29T20:15:39.487Z,99418.59
2019-01-29T20:18:29.967Z,99422.48
2019-01-29T20:21:20.744Z,99392.21
2019-01-29T20:24:11.388Z,99420.16
2019-01-29T20:27:02.097Z,99420.41
2019-01-29T20:29:52.682Z,99406.53
2019-01-29T20:32:52.922Z,99391.45
2019-01-29T20:35:35.188Z,99412.84
2019-01-29T20:38:25.412Z,99397.51
2019-01-29T20:41:15.947Z,99397.51
2019-01-29T20:44:06.563Z,99408.90
2019-01-29T20:46:56.744Z,99397.78
2019-01-29T20:49:47.343Z,99387.75
2019-01-29T20:52:38.062Z,99388.17
2019-01-29T20:55:28.654Z,99382.16
2019-01-29T20:58:19.184Z,99370.64
2019-01-29T21:01:09.687Z,99383.66
2019-01-29T21:03:59.947Z,99357.73
2019-01-29T21:06:50.175Z,99373.67
2019-01-29T21:09:40.672Z,99365.80
2019-01-29T21:12:30.804Z,99372.88
2019-01-29T21:15:22.231Z,99375.07
2019-01-29T21:18:12.829Z,99355.17
2019-01-29T21:21:03.233Z,99371.11
2019-01-29T21:23:53.919Z,99365.36
2019-01-29T21:26:44.068Z,99368.58
2019-01-29T21:29:34.540Z,99375.67
2019-01-29T21:32:25.130Z,99366.28
2019-01-29T21:35:16.214Z,99371.34
2019-01-29T21:38:06.814Z,99370.00
2019-01-29T21:40:57.349Z,99372.03
2019-01-29T21:43:47.829Z,99368.34
2019-01-29T21:46:38.358Z,99357.92
2019-01-29T21:49:28.677Z,99357.77
2019-01-29T21:52:19.147Z,99363.36
2019-01-29T21:55:10.011Z,99374.16
2019-01-29T21:58:00.892Z,99345.50
2019-01-29T22:00:51.446Z,99373.50
2019-01-29T22:03:42.037Z,99360.46
2019-01-29T22:06:32.721Z,99342.71
2019-01-29T22:09:24.447Z,99332.96
2019-01-29T22:12:15.135Z,99339.41
2019-01-29T22:15:07.331Z,99351.82
2019-01-29T22:17:57.776Z,99334.75
2019-01-29T22:20:48.574Z,99333.04
2019-01-29T22:23:39.127Z,99324.99
2019-01-29T22:26:29.602Z,99330.80
2019-01-29T22:29:23.257Z,99329.25
2019-01-29T22:32:11.974Z,99324.41
2019-01-29T22:35:02.112Z,99329.41
2019-01-29T22:37:52.945Z,99324.85
2019-01-29T22:40:43.373Z,99341.59
2019-01-29T22:43:33.641Z,99399.95
2019-01-29T22:46:23.847Z,99400.72
2019-01-29T22:49:14.423Z,99376.19
2019-01-29T22:52:05.121Z,99382.72
2019-01-29T22:54:55.529Z,99387.38
2019-01-29T22:57:45.845Z,99402.55
2019-01-29T23:01:09.108Z,99382.34
2019-01-29T23:04:36.045Z,99376.24
2019-01-29T23:07:30.488Z,99366.30
2019-01-29T23:10:21.300Z,99359.39
2019-01-29T23:13:11.850Z,99353.43
2019-01-29T23:16:02.495Z,99350.52
2019-01-29T23:18:53.070Z,99339.23
2019-01-29T23:21:43.489Z,99322.40
2019-01-29T23:24:34.337Z,99330.98
2019-01-29T23:27:24.732Z,99336.31
2019-01-29T23:30:17.028Z,99333.99
2019-01-29T23:33:08.301Z,99332.86
2019-01-29T23:35:58.820Z,99333.44
2019-01-29T23:38:49.237Z,99338.25
2019-01-29T23:41:39.885Z,99342.34
2019-01-29T23:44:30.280Z,99337.01
2019-01-29T23:47:20.793Z,99337.78
2019-01-29T23:50:12.461Z,99318.19
2019-01-29T23:53:02.738Z,99328.48
2019-01-29T23:55:53.528Z,99325.88
2019-01-29T23:58:44.287Z,99321.45
